createdAt,value
2019-02-04T00:00:41.602Z,12.28
2019-02-04T00:03:14.040Z,11.38
2019-02-04T00:05:42.496Z,12.53
2019-02-04T00:08:12.442Z,12.97
2019-02-04T00:10:47.497Z,13.10
2019-02-04T00:13:11.011Z,11.77
2019-02-04T00:15:43.070Z,11.53
2019-02-04T00:18:09.150Z,18.07
2019-02-04T00:20:37.320Z,12.47
2019-02-04T00:23:05.382Z,13.57
2019-02-04T00:25:33.959Z,12.63
2019-02-04T00:28:02.153Z,12.88
2019-02-04T00:30:31.770Z,12.43
2019-02-04T00:33:02.231Z,13.53
2019-02-04T00:35:30.400Z,13.17
2019-02-04T00:38:08.961Z,13.70
2019-02-04T00:40:28.435Z,12.97
2019-02-04T00:42:56.542Z,13.73
2019-02-04T00:45:24.607Z,14.33
2019-02-04T00:47:52.833Z,13.17
2019-02-04T00:50:22.964Z,14.78
2019-02-04T00:52:50.980Z,15.00
2019-02-04T00:55:25.503Z,15.23
2019-02-04T00:57:51.023Z,15.83
2019-02-04T01:00:20.679Z,14.75
2019-02-04T01:02:48.705Z,15.97
2019-02-04T01:05:18.257Z,14.57
2019-02-04T01:07:46.615Z,14.97
2019-02-04T01:10:18.889Z,14.83
2019-02-04T01:12:46.916Z,14.80
2019-02-04T01:15:15.012Z,16.87
2019-02-04T01:17:43.122Z,15.67
2019-02-04T01:20:12.928Z,17.07
2019-02-04T01:22:41.014Z,17.67
2019-02-04T01:25:09.475Z,16.63
2019-02-04T01:27:37.610Z,17.75
2019-02-04T01:30:07.265Z,19.70
2019-02-04T01:32:35.372Z,18.27
2019-02-04T01:35:03.649Z,17.53
2019-02-04T01:37:31.703Z,18.23
2019-02-04T01:40:00.164Z,18.25
2019-02-04T01:42:28.251Z,17.73
2019-02-04T01:44:56.302Z,18.67
2019-02-04T01:47:24.321Z,19.90
2019-02-04T01:49:52.479Z,19.10
2019-02-04T01:52:23.937Z,19.30
2019-02-04T01:54:52.908Z,18.37
2019-02-04T01:57:22.117Z,20.47
2019-02-04T01:59:50.606Z,18.90
2019-02-04T02:02:24.105Z,21.23
2019-02-04T02:04:52.450Z,19.67
2019-02-04T02:07:21.284Z,19.30
2019-02-04T02:09:49.732Z,19.13
2019-02-04T02:12:17.977Z,19.40
2019-02-04T02:14:47.744Z,19.90
2019-02-04T02:17:26.119Z,20.97
2019-02-04T02:19:46.379Z,21.37
2019-02-04T02:22:14.612Z,18.90
2019-02-04T02:24:42.970Z,19.25
2019-02-04T02:27:12.986Z,19.87
2019-02-04T02:29:40.812Z,19.40
2019-02-04T02:32:08.900Z,21.67
2019-02-04T02:34:39.131Z,21.05
2019-02-04T02:37:07.225Z,20.73
2019-02-04T02:39:36.943Z,19.57
2019-02-04T02:42:05.009Z,19.63
2019-02-04T02:44:33.096Z,21.53
2019-02-04T02:47:01.114Z,20.32
2019-02-04T02:49:29.173Z,22.77
2019-02-04T02:51:58.838Z,19.98
2019-02-04T02:54:27.311Z,20.12
2019-02-04T02:56:57.679Z,20.43
2019-02-04T02:59:25.850Z,19.00
2019-02-04T03:01:55.525Z,19.60
2019-02-04T03:04:23.612Z,21.07
2019-02-04T03:06:51.984Z,20.03
2019-02-04T03:09:20.094Z,20.15
2019-02-04T03:11:48.109Z,19.77
2019-02-04T03:14:16.152Z,23.00
2019-02-04T03:16:44.228Z,20.60
2019-02-04T03:19:12.251Z,21.00
2019-02-04T03:21:40.300Z,20.95
2019-02-04T03:24:08.389Z,21.47
2019-02-04T03:26:36.884Z,21.37
2019-02-04T03:29:05.145Z,20.57
2019-02-04T03:31:33.254Z,19.98
2019-02-04T03:34:01.408Z,19.80
2019-02-04T03:36:32.590Z,21.53
2019-02-04T03:39:00.712Z,22.90
2019-02-04T03:41:32.532Z,19.70
2019-02-04T03:44:02.200Z,20.75
2019-02-04T03:46:30.188Z,21.83
2019-02-04T03:48:58.291Z,21.47
2019-02-04T03:51:26.321Z,23.30
2019-02-04T03:53:54.338Z,20.97
2019-02-04T03:56:24.019Z,21.17
2019-02-04T03:58:52.066Z,23.50
2019-02-04T04:01:20.145Z,20.73
2019-02-04T04:03:48.161Z,21.13
2019-02-04T04:06:17.042Z,22.67
2019-02-04T04:08:45.043Z,20.53
2019-02-04T04:11:13.085Z,23.50
2019-02-04T04:14:00.540Z,20.80
2019-02-04T04:16:28.629Z,21.10
2019-02-04T04:18:56.720Z,20.77
2019-02-04T04:21:25.061Z,24.52
2019-02-04T04:23:57.089Z,19.60
2019-02-04T04:26:25.702Z,20.32
2019-02-04T04:28:53.818Z,20.90
2019-02-04T04:31:23.985Z,21.50
2019-02-04T04:33:52.328Z,20.57
2019-02-04T04:36:21.356Z,20.77
2019-02-04T04:38:49.423Z,22.03
2019-02-04T04:41:17.478Z,22.93
2019-02-04T04:43:45.788Z,21.83
2019-02-04T04:46:13.819Z,21.93
2019-02-04T04:48:41.877Z,19.73
2019-02-04T04:51:09.967Z,19.83
2019-02-04T04:53:39.926Z,21.27
2019-02-04T04:56:08.124Z,18.53
2019-02-04T04:58:40.586Z,22.70
2019-02-04T05:01:07.638Z,20.07
2019-02-04T05:03:35.737Z,19.77
2019-02-04T05:06:05.304Z,19.30
2019-02-04T05:08:33.349Z,18.97
2019-02-04T05:11:01.548Z,18.87
2019-02-04T05:13:31.319Z,19.37
2019-02-04T05:15:59.415Z,20.17
2019-02-04T05:18:37.436Z,18.83
2019-02-04T05:20:57.318Z,19.67
2019-02-04T05:23:27.747Z,17.93
2019-02-04T05:25:55.934Z,18.95
2019-02-04T05:28:24.037Z,18.57
2019-02-04T05:30:52.166Z,18.10
2019-02-04T05:33:20.217Z,21.67
2019-02-04T05:35:50.140Z,19.27
2019-02-04T05:38:18.161Z,18.20
2019-02-04T05:40:46.173Z,17.17
2019-02-04T05:43:14.266Z,21.48
2019-02-04T05:45:43.924Z,17.80
2019-02-04T05:48:13.436Z,17.60
2019-02-04T05:50:41.584Z,20.02
2019-02-04T05:53:09.639Z,17.77
2019-02-04T05:55:42.239Z,17.63
2019-02-04T05:58:10.351Z,18.82
2019-02-04T06:00:40.828Z,16.13
2019-02-04T06:03:08.875Z,17.20
2019-02-04T06:05:36.900Z,17.42
2019-02-04T06:08:04.967Z,16.07
2019-02-04T06:10:32.987Z,16.83
2019-02-04T06:13:01.161Z,19.27
2019-02-04T06:15:29.411Z,17.67
2019-02-04T06:17:58.232Z,18.00
2019-02-04T06:20:28.036Z,18.10
2019-02-04T06:22:56.200Z,18.30
2019-02-04T06:25:24.283Z,17.03
2019-02-04T06:27:52.391Z,16.40
2019-02-04T06:30:24.421Z,15.40
2019-02-04T06:32:52.684Z,24.70
2019-02-04T06:35:27.466Z,23.57
2019-02-04T06:37:55.571Z,17.47
2019-02-04T06:40:24.404Z,17.67
2019-02-04T06:42:54.199Z,19.00
2019-02-04T06:45:22.286Z,16.40
2019-02-04T06:47:50.393Z,15.30
2019-02-04T06:50:19.130Z,15.07
2019-02-04T06:52:47.320Z,16.40
2019-02-04T06:55:20.141Z,16.80
2019-02-04T06:57:48.238Z,16.83
2019-02-04T07:00:17.069Z,17.00
2019-02-04T07:02:45.119Z,15.77
2019-02-04T07:05:13.147Z,16.43
2019-02-04T07:07:41.245Z,16.23
2019-02-04T07:10:13.797Z,16.93
2019-02-04T07:12:41.934Z,17.13
2019-02-04T07:15:10.228Z,18.53
2019-02-04T07:17:38.261Z,15.60
2019-02-04T07:20:07.982Z,15.45
2019-02-04T07:22:36.004Z,14.80
2019-02-04T07:25:05.664Z,16.17
2019-02-04T07:27:33.690Z,15.43
2019-02-04T07:30:01.807Z,16.47
2019-02-04T07:32:29.902Z,13.60
2019-02-04T07:34:58.008Z,15.47
2019-02-04T07:37:30.501Z,16.50
2019-02-04T07:39:58.635Z,16.17
2019-02-04T07:42:26.808Z,15.95
2019-02-04T07:44:54.870Z,15.53
2019-02-04T07:47:22.925Z,17.07
2019-02-04T07:49:50.952Z,14.87
2019-02-04T07:52:19.136Z,14.73
2019-02-04T07:54:47.154Z,15.97
2019-02-04T07:57:15.250Z,14.57
2019-02-04T07:59:51.803Z,14.63
2019-02-04T08:02:17.079Z,14.53
2019-02-04T08:04:45.331Z,14.93
2019-02-04T08:07:17.606Z,15.07
2019-02-04T08:09:45.630Z,14.57
2019-02-04T08:12:15.151Z,15.50
2019-02-04T08:15:16.362Z,14.25
2019-02-04T08:17:36.056Z,14.40
2019-02-04T08:20:05.004Z,15.23
2019-02-04T08:22:33.119Z,17.87
2019-02-04T08:25:01.164Z,15.93
2019-02-04T08:27:29.193Z,15.47
2019-02-04T08:29:58.909Z,15.73
2019-02-04T08:32:27.074Z,15.63
2019-02-04T08:34:55.353Z,15.83
2019-02-04T08:37:23.490Z,15.83
2019-02-04T08:39:51.640Z,15.03
2019-02-04T08:42:19.787Z,15.20
2019-02-04T08:44:47.870Z,16.47
2019-02-04T08:47:22.917Z,16.10
2019-02-04T08:49:58.011Z,16.17
2019-02-04T08:52:26.257Z,16.73
2019-02-04T08:54:49.898Z,15.53
2019-02-04T08:57:19.681Z,14.23
2019-02-04T08:59:48.196Z,14.43
2019-02-04T09:02:16.946Z,15.63
2019-02-04T09:04:45.415Z,13.77
2019-02-04T09:07:13.515Z,13.83
2019-02-04T09:09:41.530Z,15.60
2019-02-04T09:12:10.013Z,14.23
2019-02-04T09:14:38.174Z,13.97
2019-02-04T09:17:09.527Z,14.50
2019-02-04T09:19:37.608Z,14.00
2019-02-04T09:22:06.134Z,16.37
2019-02-04T09:24:34.674Z,15.20
2019-02-04T09:27:02.852Z,14.17
2019-02-04T09:29:37.342Z,15.13
2019-02-04T09:32:02.382Z,13.70
2019-02-04T09:34:30.499Z,15.17
2019-02-04T09:36:58.568Z,14.77
2019-02-04T09:39:26.628Z,14.10
2019-02-04T09:41:56.318Z,14.00
2019-02-04T09:44:24.384Z,13.93
2019-02-04T09:46:52.555Z,12.60
2019-02-04T09:49:20.640Z,12.00
2019-02-04T09:51:52.964Z,13.00
2019-02-04T09:54:18.585Z,14.17
2019-02-04T09:56:46.722Z,13.68
2019-02-04T09:59:14.809Z,13.62
2019-02-04T10:01:47.131Z,12.73
2019-02-04T10:04:15.172Z,13.17
2019-02-04T10:06:44.936Z,12.60
2019-02-04T10:09:13.439Z,13.33
2019-02-04T10:11:41.576Z,11.80
2019-02-04T10:14:09.595Z,12.57
2019-02-04T10:16:37.675Z,12.63
2019-02-04T10:19:08.085Z,12.70
2019-02-04T10:21:35.500Z,13.13
2019-02-04T10:24:03.910Z,13.33
2019-02-04T10:26:32.779Z,13.13
2019-02-04T10:29:02.498Z,13.73
2019-02-04T10:31:30.583Z,11.93
2019-02-04T10:33:58.732Z,12.83
2019-02-04T10:36:26.956Z,11.67
2019-02-04T10:38:55.436Z,12.20
2019-02-04T10:41:28.218Z,12.27
2019-02-04T10:43:56.416Z,11.63
2019-02-04T10:46:24.503Z,11.33
2019-02-04T10:48:52.674Z,12.07
2019-02-04T10:51:20.896Z,11.60
2019-02-04T10:53:50.738Z,12.80
2019-02-04T10:56:18.935Z,10.82
2019-02-04T10:58:48.641Z,12.70
2019-02-04T11:01:16.819Z,12.50
2019-02-04T11:03:44.995Z,11.23
2019-02-04T11:06:13.084Z,11.47
2019-02-04T11:08:41.178Z,12.07
2019-02-04T11:11:11.609Z,11.83
2019-02-04T11:13:38.973Z,12.50
2019-02-04T11:16:07.100Z,12.57
2019-02-04T11:18:35.240Z,11.78
2019-02-04T11:23:56.568Z,11.57
2019-02-04T11:26:24.742Z,13.77
2019-02-04T11:28:52.830Z,12.67
2019-02-04T11:31:20.915Z,12.40
2019-02-04T11:33:50.387Z,12.23
2019-02-04T11:36:18.715Z,12.27
2019-02-04T11:38:46.825Z,12.67
2019-02-04T11:41:14.948Z,12.17
2019-02-04T11:43:43.083Z,12.27
2019-02-04T11:46:11.191Z,10.80
2019-02-04T11:48:39.314Z,11.20
2019-02-04T11:51:09.720Z,10.90
2019-02-04T11:53:37.179Z,11.83
2019-02-04T11:56:05.255Z,10.18
2019-02-04T11:58:33.286Z,10.33
2019-02-04T12:01:01.415Z,9.60
2019-02-04T12:03:29.557Z,10.70
2019-02-04T12:05:57.643Z,10.00
2019-02-04T12:08:26.105Z,9.83
2019-02-04T12:10:56.031Z,9.00
2019-02-04T12:13:24.135Z,8.97
2019-02-04T12:15:52.613Z,8.27
2019-02-04T12:18:20.705Z,8.30
2019-02-04T12:20:48.772Z,9.00
2019-02-04T12:23:16.904Z,9.07
2019-02-04T12:25:45.034Z,10.57
2019-02-04T12:28:13.065Z,9.00
2019-02-04T12:30:41.701Z,8.83
2019-02-04T12:33:13.381Z,7.87
2019-02-04T12:35:41.509Z,8.43
2019-02-04T12:38:09.533Z,8.33
2019-02-04T12:40:37.673Z,8.67
2019-02-04T12:43:05.771Z,7.57
2019-02-04T12:45:35.435Z,7.53
2019-02-04T12:48:03.533Z,8.43
2019-02-04T12:50:31.571Z,6.85
2019-02-04T12:52:59.677Z,7.03
2019-02-04T12:55:29.081Z,6.67
2019-02-04T12:57:57.227Z,8.83
2019-02-04T13:00:26.388Z,7.67
2019-02-04T13:02:54.757Z,6.37
2019-02-04T13:05:30.170Z,7.60
2019-02-04T13:07:58.548Z,6.77
2019-02-04T13:10:26.701Z,5.63
2019-02-04T13:12:54.784Z,7.27
2019-02-04T13:15:23.489Z,6.30
2019-02-04T13:17:51.979Z,5.03
2019-02-04T13:20:20.710Z,5.22
2019-02-04T13:22:49.038Z,5.30
2019-02-04T13:25:19.873Z,5.50
2019-02-04T13:27:47.985Z,5.10
2019-02-04T13:30:20.164Z,4.53
2019-02-04T13:32:48.275Z,4.20
2019-02-04T13:35:16.397Z,5.60
2019-02-04T13:37:44.493Z,4.60
2019-02-04T13:40:17.225Z,4.90
2019-02-04T13:42:45.268Z,4.45
2019-02-04T13:45:14.471Z,4.40
2019-02-04T13:47:42.593Z,4.72
2019-02-04T13:50:11.318Z,5.43
2019-02-04T13:52:39.459Z,5.07
2019-02-04T13:55:09.502Z,4.37
2019-02-04T13:57:37.628Z,4.60
2019-02-04T14:00:07.375Z,4.80
2019-02-04T14:02:35.508Z,4.20
2019-02-04T14:05:04.399Z,3.90
2019-02-04T14:07:32.463Z,4.07
2019-02-04T14:10:00.908Z,3.80
2019-02-04T14:12:28.999Z,4.80
2019-02-04T14:14:57.070Z,4.30
2019-02-04T14:17:25.109Z,3.95
2019-02-04T14:19:53.226Z,4.40
2019-02-04T14:22:21.264Z,5.12
2019-02-04T14:24:49.752Z,4.33
2019-02-04T14:27:17.832Z,5.83
2019-02-04T14:29:45.902Z,4.53
2019-02-04T14:32:14.774Z,4.60
2019-02-04T14:34:42.863Z,5.40
2019-02-04T14:37:10.983Z,4.00
2019-02-04T14:39:39.379Z,3.97
2019-02-04T14:42:08.888Z,4.53
2019-02-04T14:44:37.957Z,4.60
2019-02-04T14:47:26.970Z,4.10
2019-02-04T14:50:15.359Z,4.00
2019-02-04T14:52:54.206Z,4.23
2019-02-04T14:55:26.753Z,4.30
2019-02-04T14:57:56.813Z,3.90
2019-02-04T15:00:26.568Z,4.33
2019-02-04T15:02:56.208Z,5.10
2019-02-04T15:05:38.360Z,4.40
2019-02-04T15:08:10.865Z,4.53
2019-02-04T15:10:46.433Z,4.53
2019-02-04T15:13:20.742Z,4.90
2019-02-04T15:16:02.728Z,4.70
2019-02-04T15:18:32.597Z,4.90
2019-02-04T15:21:08.227Z,4.97
2019-02-04T15:23:43.905Z,5.80
2019-02-04T15:26:22.638Z,4.10
2019-02-04T15:28:58.313Z,5.87
2019-02-04T15:31:33.768Z,5.05
2019-02-04T15:34:18.411Z,4.97
2019-02-04T15:36:57.687Z,5.53
2019-02-04T15:39:30.147Z,5.70
2019-02-04T15:42:02.827Z,4.97
2019-02-04T15:44:32.612Z,5.40
2019-02-04T15:47:02.877Z,5.73
2019-02-04T15:49:50.788Z,5.53
2019-02-04T15:52:14.595Z,6.13
2019-02-04T15:54:42.723Z,6.50
2019-02-04T15:57:10.895Z,5.93
2019-02-04T15:59:39.313Z,5.00
2019-02-04T16:02:07.501Z,4.80
2019-02-04T16:04:36.146Z,4.53
2019-02-04T16:07:05.581Z,6.07
2019-02-04T16:09:33.784Z,5.63
2019-02-04T16:12:02.009Z,6.05
2019-02-04T16:14:30.837Z,5.50
2019-02-04T16:16:58.889Z,4.93
2019-02-04T16:19:26.935Z,5.23
2019-02-04T16:21:55.011Z,5.45
2019-02-04T16:24:23.151Z,5.17
2019-02-04T16:26:51.190Z,3.95
2019-02-04T16:29:19.425Z,4.70
2019-02-04T16:31:47.913Z,4.70
2019-02-04T16:34:15.976Z,5.17
2019-02-04T16:36:44.244Z,4.63
2019-02-04T16:39:12.670Z,4.03
2019-02-04T16:41:40.763Z,4.37
2019-02-04T16:44:08.888Z,4.07
2019-02-04T16:46:37.399Z,4.33
2019-02-04T16:49:05.579Z,4.00
2019-02-04T16:51:33.701Z,4.23
2019-02-04T16:54:02.070Z,4.70
2019-02-04T16:56:31.840Z,3.98
2019-02-04T16:59:00.144Z,4.20
2019-02-04T17:01:28.263Z,4.17
2019-02-04T17:03:56.602Z,5.55
2019-02-04T17:06:24.744Z,4.03
2019-02-04T17:08:53.022Z,4.37
2019-02-04T17:11:21.974Z,4.67
2019-02-04T17:13:50.151Z,3.83
2019-02-04T17:16:20.150Z,4.13
2019-02-04T17:18:48.266Z,3.73
2019-02-04T17:21:16.400Z,3.87
2019-02-04T17:23:45.190Z,3.83
2019-02-04T17:26:13.381Z,3.73
2019-02-04T17:28:41.530Z,4.17
2019-02-04T17:31:09.563Z,5.03
2019-02-04T17:33:37.604Z,4.23
2019-02-04T17:36:06.053Z,4.37
2019-02-04T17:38:34.141Z,4.27
2019-02-04T17:41:02.299Z,3.90
2019-02-04T17:43:30.386Z,3.73
2019-02-04T17:45:58.944Z,3.33
2019-02-04T17:48:27.069Z,3.33
2019-02-04T17:50:55.176Z,3.60
2019-02-04T17:53:33.892Z,2.40
2019-02-04T17:55:54.782Z,3.00
2019-02-04T17:58:22.934Z,2.98
2019-02-04T18:00:51.875Z,3.30
2019-02-04T18:03:20.056Z,4.10
2019-02-04T18:05:48.278Z,3.57
2019-02-04T18:08:16.526Z,3.43
2019-02-04T18:10:44.690Z,3.13
2019-02-04T18:13:12.836Z,4.17
2019-02-04T18:15:40.958Z,3.75
2019-02-04T18:18:09.179Z,3.90
2019-02-04T18:20:37.352Z,3.60
2019-02-04T18:23:05.941Z,3.87
2019-02-04T18:25:35.080Z,4.33
2019-02-04T18:28:04.348Z,4.80
2019-02-04T18:30:33.037Z,4.30
2019-02-04T18:33:01.254Z,3.97
2019-02-04T18:35:29.745Z,4.30
2019-02-04T18:37:58.065Z,5.27
2019-02-04T18:40:26.237Z,4.80
2019-02-04T18:42:54.717Z,4.37
2019-02-04T18:45:30.220Z,5.50
2019-02-04T18:47:58.286Z,5.28
2019-02-04T18:50:26.952Z,5.20
2019-02-04T18:52:55.078Z,5.07
2019-02-04T18:55:24.262Z,4.20
2019-02-04T18:57:52.477Z,4.03
2019-02-04T19:00:21.866Z,8.13
2019-02-04T19:02:50.006Z,4.53
2019-02-04T19:05:18.544Z,4.53
2019-02-04T19:07:46.809Z,4.20
2019-02-04T19:10:16.601Z,4.00
2019-02-04T19:12:44.748Z,4.27
2019-02-04T19:15:15.022Z,4.30
2019-02-04T19:17:44.819Z,4.17
2019-02-04T19:20:15.564Z,3.93
2019-02-04T19:22:43.747Z,4.30
2019-02-04T19:25:13.455Z,4.20
2019-02-04T19:27:41.639Z,4.47
2019-02-04T19:30:27.760Z,4.23
2019-02-04T19:32:56.218Z,5.20
2019-02-04T19:35:24.262Z,4.73
2019-02-04T19:37:52.402Z,5.23
2019-02-04T19:40:20.635Z,5.40
2019-02-04T19:42:48.737Z,5.00
2019-02-04T19:45:18.207Z,5.30
2019-02-04T19:47:46.348Z,5.70
2019-02-04T19:50:16.047Z,5.50
2019-02-04T19:52:44.188Z,5.05
2019-02-04T19:55:12.288Z,4.97
2019-02-04T19:57:40.396Z,5.30
2019-02-04T20:00:15.859Z,5.10
2019-02-04T20:02:44.870Z,5.07
2019-02-04T20:05:14.447Z,4.50
2019-02-04T20:07:42.600Z,4.83
2019-02-04T20:10:12.072Z,5.10
2019-02-04T20:12:42.417Z,4.80
2019-02-04T20:15:12.091Z,4.80
2019-02-04T20:17:40.508Z,5.00
2019-02-04T20:20:09.779Z,4.57
2019-02-04T20:22:37.949Z,4.30
2019-02-04T20:25:07.689Z,4.27
2019-02-04T20:30:14.395Z,5.70
2019-02-04T20:32:42.911Z,4.10
2019-02-04T20:35:11.130Z,3.97
2019-02-04T20:37:41.314Z,3.90
2019-02-04T20:40:10.699Z,4.50
2019-02-04T20:42:39.707Z,4.10
2019-02-04T20:45:09.759Z,4.78
2019-02-04T20:47:38.169Z,4.90
2019-02-04T20:50:08.472Z,5.60
2019-02-04T20:52:36.603Z,4.63
2019-02-04T20:55:05.647Z,5.55
2019-02-04T20:57:33.772Z,6.10
2019-02-04T21:02:36.448Z,3.97
2019-02-04T21:05:05.174Z,4.47
2019-02-04T21:07:33.375Z,3.90
2019-02-04T21:10:01.548Z,3.77
2019-02-04T21:12:29.629Z,3.98
2019-02-04T21:14:57.946Z,4.73
2019-02-04T21:17:26.223Z,5.23
2019-02-04T21:19:54.483Z,5.90
2019-02-04T21:22:23.830Z,5.53
2019-02-04T21:24:56.420Z,4.67
2019-02-04T21:27:24.461Z,5.13
2019-02-04T21:29:52.563Z,4.83
2019-02-04T21:32:20.721Z,4.57
2019-02-04T21:34:52.101Z,4.73
2019-02-04T21:37:20.243Z,5.20
2019-02-04T21:39:48.292Z,5.53
2019-02-04T21:42:16.421Z,20.23
2019-02-04T21:44:44.705Z,6.47
2019-02-04T21:47:13.050Z,6.78
2019-02-04T21:49:41.261Z,6.10
2019-02-04T21:52:09.340Z,6.17
2019-02-04T21:54:40.411Z,5.50
2019-02-04T21:57:08.583Z,4.97
2019-02-04T21:59:37.484Z,4.73
2019-02-04T22:02:05.587Z,4.73
2019-02-04T22:04:33.914Z,4.27
2019-02-04T22:07:02.128Z,4.22
2019-02-04T22:09:30.324Z,4.67
2019-02-04T22:11:58.416Z,4.23
2019-02-04T22:14:28.473Z,4.50
2019-02-04T22:16:56.607Z,9.87
2019-02-04T22:19:24.697Z,4.33
2019-02-04T22:21:52.784Z,4.57
2019-02-04T22:24:20.839Z,4.28
2019-02-04T22:26:48.890Z,4.50
2019-02-04T22:29:17.305Z,4.17
2019-02-04T22:31:45.379Z,4.30
2019-02-04T22:34:14.455Z,4.28
2019-02-04T22:36:42.625Z,4.47
2019-02-04T22:39:11.075Z,4.33
2019-02-04T22:41:39.166Z,4.33
2019-02-04T22:44:07.331Z,4.40
2019-02-04T22:46:35.502Z,3.87
2019-02-04T22:49:06.863Z,4.60
2019-02-04T22:51:34.985Z,5.00
2019-02-04T22:54:03.079Z,4.27
2019-02-04T22:56:31.180Z,4.58
2019-02-04T22:58:59.366Z,4.67
2019-02-04T23:01:31.985Z,5.60
2019-02-04T23:04:00.099Z,6.20
2019-02-04T23:06:28.190Z,4.70
2019-02-04T23:08:56.246Z,5.07
2019-02-04T23:11:24.328Z,4.90
2019-02-04T23:13:52.369Z,4.85
2019-02-04T23:16:20.501Z,5.40
2019-02-04T23:18:48.619Z,4.17
2019-02-04T23:21:16.777Z,5.57
2019-02-04T23:23:44.811Z,4.80
2019-02-04T23:26:13.309Z,5.03
2019-02-04T23:28:41.501Z,4.43
2019-02-04T23:31:09.626Z,4.75
2019-02-04T23:33:37.729Z,4.63
2019-02-04T23:36:06.510Z,5.43
2019-02-04T23:38:34.593Z,5.23
2019-02-04T23:41:02.982Z,4.30
2019-02-04T23:43:31.035Z,5.67
2019-02-04T23:45:59.102Z,4.70
2019-02-04T23:48:27.245Z,4.72
2019-02-04T23:50:55.306Z,4.40
2019-02-04T23:53:23.655Z,4.90
2019-02-04T23:55:54.785Z,5.50
2019-02-04T23:58:21.984Z,4.77
